createdAt,value
2023-01-10T00:02:34.113Z,1.92
2023-01-10T00:05:41.002Z,1.80
2023-01-10T00:08:45.593Z,2.38
2023-01-10T00:12:08.656Z,1.80
2023-01-10T00:15:13.159Z,2.45
2023-01-10T00:18:17.797Z,2.75
2023-01-10T00:21:22.311Z,2.42
2023-01-10T00:24:26.814Z,2.00
2023-01-10T00:27:31.281Z,1.98
2023-01-10T00:30:40.572Z,2.28
2023-01-10T00:33:46.106Z,2.40
2023-01-10T00:36:50.649Z,2.20
2023-01-10T00:39:55.120Z,2.10
2023-01-10T00:43:19.199Z,1.67
2023-01-10T00:46:24.354Z,1.90
2023-01-10T00:49:28.863Z,1.70
2023-01-10T00:52:34.119Z,1.55
2023-01-10T00:55:39.375Z,2.03
2023-01-10T00:58:44.838Z,1.60
2023-01-10T01:01:50.575Z,1.48
2023-01-10T01:04:55.062Z,1.45
2023-01-10T01:07:59.621Z,1.30
2023-01-10T01:11:04.223Z,1.35
2023-01-10T01:14:08.772Z,1.52
2023-01-10T01:17:13.315Z,1.40
2023-01-10T01:20:18.321Z,1.52
2023-01-10T01:23:23.048Z,1.42
2023-01-10T01:26:27.514Z,1.67
2023-01-10T01:29:42.609Z,1.20
2023-01-10T01:32:47.752Z,1.67
2023-01-10T01:35:54.045Z,1.17
2023-01-10T01:38:58.660Z,1.10
2023-01-10T01:42:04.852Z,1.33
2023-01-10T01:45:09.276Z,1.27
2023-01-10T01:48:25.672Z,1.50
2023-01-10T01:51:31.549Z,1.40
2023-01-10T01:54:36.543Z,2.05
2023-01-10T01:57:41.077Z,1.60
2023-01-10T02:00:45.655Z,1.48
2023-01-10T02:03:56.495Z,1.52
2023-01-10T02:07:02.170Z,1.70
2023-01-10T02:10:13.087Z,1.60
2023-01-10T02:13:21.654Z,1.85
2023-01-10T02:16:26.204Z,1.58
2023-01-10T02:19:43.226Z,2.10
2023-01-10T02:23:19.539Z,2.15
2023-01-10T02:26:51.934Z,2.13
2023-01-10T02:30:20.936Z,1.80
2023-01-10T02:34:02.011Z,1.83
2023-01-10T02:37:16.207Z,1.70
2023-01-10T02:40:30.306Z,1.80
2023-01-10T02:43:36.102Z,1.70
2023-01-10T02:46:41.336Z,1.63
2023-01-10T02:49:48.359Z,1.83
2023-01-10T02:52:53.170Z,1.58
2023-01-10T02:56:21.026Z,1.30
2023-01-10T02:59:43.948Z,1.50
2023-01-10T03:02:48.464Z,1.63
2023-01-10T03:06:11.351Z,1.88
2023-01-10T03:09:31.222Z,1.60
2023-01-10T03:12:57.146Z,1.83
2023-01-10T03:16:04.596Z,1.70
2023-01-10T03:19:12.976Z,1.30
2023-01-10T03:22:18.042Z,1.80
2023-01-10T03:25:28.308Z,1.40
2023-01-10T03:28:44.688Z,1.40
2023-01-10T03:31:55.066Z,1.90
2023-01-10T03:35:01.105Z,1.90
2023-01-10T03:38:12.165Z,1.80
2023-01-10T03:41:18.048Z,1.88
2023-01-10T03:44:46.836Z,1.40
2023-01-10T03:47:54.060Z,1.45
2023-01-10T03:51:02.459Z,1.60
2023-01-10T03:54:07.268Z,1.60
2023-01-10T03:57:21.456Z,2.13
2023-01-10T04:00:26.068Z,1.40
2023-01-10T04:03:30.624Z,1.48
2023-01-10T04:06:35.423Z,1.90
2023-01-10T04:09:39.983Z,1.92
2023-01-10T04:12:44.519Z,1.50
2023-01-10T04:15:49.074Z,1.65
2023-01-10T04:18:53.543Z,1.90
2023-01-10T04:21:58.092Z,1.83
2023-01-10T04:25:02.646Z,1.70
2023-01-10T04:28:07.098Z,1.90
2023-01-10T04:31:13.078Z,1.70
2023-01-10T04:34:20.113Z,1.90
2023-01-10T04:37:24.720Z,1.80
2023-01-10T04:40:29.316Z,2.08
2023-01-10T04:43:33.913Z,1.90
2023-01-10T04:46:38.505Z,2.08
2023-01-10T04:49:43.021Z,1.70
2023-01-10T04:52:49.313Z,1.83
2023-01-10T04:55:53.926Z,1.90
2023-01-10T04:58:58.624Z,1.77
2023-01-10T05:02:03.327Z,1.60
2023-01-10T05:05:08.522Z,1.50
2023-01-10T05:08:13.037Z,1.67
2023-01-10T05:11:17.609Z,2.40
2023-01-10T05:14:22.129Z,1.88
2023-01-10T05:17:26.847Z,2.00
2023-01-10T05:20:31.337Z,1.40
2023-01-10T05:23:38.163Z,1.60
2023-01-10T05:26:42.688Z,1.48
2023-01-10T05:29:47.169Z,1.48
2023-01-10T05:32:51.705Z,1.60
2023-01-10T05:35:56.257Z,1.40
2023-01-10T05:39:00.848Z,1.63
2023-01-10T05:42:05.798Z,1.80
2023-01-10T05:45:10.827Z,1.80
2023-01-10T05:48:15.460Z,1.65
2023-01-10T05:51:19.946Z,1.48
2023-01-10T05:54:24.517Z,1.60
2023-01-10T05:57:29.031Z,1.70
2023-01-10T06:00:33.536Z,1.80
2023-01-10T06:03:38.167Z,1.83
2023-01-10T06:06:42.694Z,1.67
2023-01-10T06:09:47.240Z,1.83
2023-01-10T06:12:51.739Z,1.83
2023-01-10T06:15:56.340Z,1.90
2023-01-10T06:19:01.001Z,2.55
2023-01-10T06:22:05.709Z,2.55
2023-01-10T06:25:11.514Z,2.13
2023-01-10T06:28:16.097Z,1.88
2023-01-10T06:31:22.559Z,2.50
2023-01-10T06:34:29.017Z,2.90
2023-01-10T06:37:33.530Z,2.20
2023-01-10T06:40:38.013Z,2.47
2023-01-10T06:43:47.083Z,2.80
2023-01-10T06:46:51.879Z,2.60
2023-01-10T06:49:56.375Z,3.47
2023-01-10T06:53:04.913Z,2.75
2023-01-10T06:56:10.344Z,3.03
2023-01-10T06:59:15.346Z,3.17
2023-01-10T07:02:20.160Z,3.30
2023-01-10T07:05:24.797Z,3.15
2023-01-10T07:08:29.350Z,4.10
2023-01-10T07:11:35.213Z,3.83
2023-01-10T07:14:39.745Z,3.65
2023-01-10T07:17:44.276Z,3.78
2023-01-10T07:20:48.838Z,3.63
2023-01-10T07:23:55.046Z,4.22
2023-01-10T07:26:59.558Z,4.07
2023-01-10T07:30:04.433Z,4.00
2023-01-10T07:33:08.964Z,4.13
2023-01-10T07:36:13.590Z,4.38
2023-01-10T07:39:18.114Z,4.28
2023-01-10T07:42:24.083Z,4.30
2023-01-10T07:45:29.888Z,4.22
2023-01-10T07:48:34.398Z,4.35
2023-01-10T07:51:38.921Z,3.83
2023-01-10T07:54:43.484Z,3.63
2023-01-10T07:57:50.090Z,3.50
2023-01-10T08:01:02.365Z,2.70
2023-01-10T08:04:07.043Z,3.80
2023-01-10T08:07:11.519Z,3.88
2023-01-10T08:10:16.523Z,3.10
2023-01-10T08:13:21.087Z,3.88
2023-01-10T08:16:25.666Z,3.05
2023-01-10T08:19:30.253Z,3.25
2023-01-10T08:22:34.853Z,3.38
2023-01-10T08:25:39.683Z,3.03
2023-01-10T08:28:44.200Z,3.38
2023-01-10T08:31:48.722Z,3.17
2023-01-10T08:34:53.277Z,3.33
2023-01-10T08:38:00.913Z,3.42
2023-01-10T08:41:05.447Z,4.28
2023-01-10T08:44:11.960Z,3.58
2023-01-10T08:47:16.658Z,4.28
2023-01-10T08:50:23.219Z,4.20
2023-01-10T08:53:31.881Z,3.90
2023-01-10T08:56:37.328Z,3.88
2023-01-10T08:59:41.814Z,3.85
2023-01-10T09:02:46.404Z,3.90
2023-01-10T09:05:51.017Z,5.03
2023-01-10T09:08:55.617Z,4.00
2023-01-10T09:12:00.126Z,3.65
2023-01-10T09:15:06.670Z,3.55
2023-01-10T09:18:12.657Z,3.45
2023-01-10T09:21:17.232Z,3.50
2023-01-10T09:24:21.781Z,3.40
2023-01-10T09:27:26.302Z,3.58
2023-01-10T09:30:32.817Z,3.50
2023-01-10T09:33:46.819Z,3.20
2023-01-10T09:36:53.728Z,2.63
2023-01-10T09:39:58.277Z,3.03
2023-01-10T09:43:14.837Z,2.90
2023-01-10T09:46:33.518Z,2.38
2023-01-10T09:50:06.392Z,3.22
2023-01-10T09:53:18.861Z,2.40
2023-01-10T09:56:23.498Z,3.15
2023-01-10T09:59:29.024Z,2.42
2023-01-10T10:02:39.109Z,2.90
2023-01-10T10:05:45.178Z,2.92
2023-01-10T10:08:51.694Z,2.85
2023-01-10T10:12:24.810Z,2.75
2023-01-10T10:15:50.619Z,3.25
2023-01-10T10:18:55.166Z,3.88
2023-01-10T10:22:18.460Z,3.47
2023-01-10T10:25:45.914Z,3.35
2023-01-10T10:29:11.346Z,2.80
2023-01-10T10:32:37.638Z,3.30
2023-01-10T10:35:56.549Z,2.92
2023-01-10T10:39:02.934Z,3.45
2023-01-10T10:42:13.624Z,3.47
2023-01-10T10:45:51.153Z,3.42
2023-01-10T10:49:38.736Z,3.75
2023-01-10T10:52:44.355Z,3.20
2023-01-10T10:55:49.177Z,3.03
2023-01-10T10:58:56.709Z,3.13
2023-01-10T11:02:01.405Z,3.72
2023-01-10T11:05:15.935Z,3.70
2023-01-10T11:08:22.109Z,3.92
2023-01-10T11:11:30.599Z,3.92
2023-01-10T11:14:51.993Z,3.30
2023-01-10T11:18:26.873Z,3.33
2023-01-10T11:21:31.623Z,3.28
2023-01-10T11:24:41.672Z,2.90
2023-01-10T11:27:54.838Z,3.33
2023-01-10T11:31:01.058Z,3.53
2023-01-10T11:34:24.998Z,3.60
2023-01-10T11:37:32.768Z,3.05
2023-01-10T11:40:39.323Z,3.83
2023-01-10T11:43:43.996Z,3.60
2023-01-10T11:46:54.530Z,3.28
2023-01-10T11:49:59.947Z,3.17
2023-01-10T11:53:06.623Z,2.35
2023-01-10T11:56:14.553Z,3.03
2023-01-10T11:59:20.422Z,2.83
2023-01-10T12:02:28.624Z,2.33
2023-01-10T12:05:37.782Z,1.80
2023-01-10T12:08:42.524Z,2.13
2023-01-10T12:11:47.067Z,1.80
2023-01-10T12:14:53.469Z,1.80
2023-01-10T12:18:02.189Z,2.08
2023-01-10T12:21:09.925Z,2.40
2023-01-10T12:24:40.307Z,2.30
2023-01-10T12:27:48.854Z,1.80
2023-01-10T12:30:56.551Z,1.88
2023-01-10T12:34:07.690Z,1.88
2023-01-10T12:37:17.778Z,1.35
2023-01-10T12:40:40.709Z,1.10
2023-01-10T12:44:06.923Z,1.25
2023-01-10T12:47:13.754Z,1.42
2023-01-10T12:50:27.569Z,1.60
2023-01-10T12:53:38.823Z,2.00
2023-01-10T12:56:44.935Z,1.88
2023-01-10T12:59:49.760Z,1.80
2023-01-10T13:02:57.491Z,1.63
2023-01-10T13:06:03.056Z,1.80
2023-01-10T13:09:15.928Z,1.77
2023-01-10T13:12:40.845Z,1.40
2023-01-10T13:15:54.430Z,1.23
2023-01-10T13:19:21.350Z,1.83
2023-01-10T13:22:26.380Z,1.27
2023-01-10T13:25:32.026Z,1.20
2023-01-10T13:28:41.459Z,1.45
2023-01-10T13:31:47.932Z,1.92
2023-01-10T13:34:54.395Z,2.03
2023-01-10T13:37:59.017Z,1.90
2023-01-10T13:41:08.118Z,2.00
2023-01-10T13:44:14.600Z,2.50
2023-01-10T13:47:41.458Z,3.08
2023-01-10T13:50:50.242Z,2.08
2023-01-10T13:54:02.323Z,2.63
2023-01-10T13:57:49.419Z,2.23
2023-01-10T14:01:18.688Z,2.78
2023-01-10T14:04:25.038Z,2.95
2023-01-10T14:07:57.633Z,2.78
2023-01-10T14:11:11.590Z,2.63
2023-01-10T14:14:23.913Z,2.42
2023-01-10T14:17:31.854Z,2.58
2023-01-10T14:20:36.873Z,2.58
2023-01-10T14:23:44.519Z,2.92
2023-01-10T14:26:50.381Z,3.30
2023-01-10T14:29:58.792Z,3.20
2023-01-10T14:33:23.621Z,2.53
2023-01-10T14:36:33.493Z,3.42
2023-01-10T14:39:38.597Z,2.50
2023-01-10T14:42:44.183Z,2.78
2023-01-10T14:46:03.452Z,2.33
2023-01-10T14:49:30.093Z,2.20
2023-01-10T14:52:34.619Z,2.17
2023-01-10T14:55:40.076Z,2.83
2023-01-10T14:58:44.613Z,1.90
2023-01-10T15:01:51.058Z,2.03
2023-01-10T15:04:59.269Z,2.45
2023-01-10T15:08:25.394Z,1.95
2023-01-10T15:11:31.928Z,2.67
2023-01-10T15:14:37.479Z,2.28
2023-01-10T15:17:43.153Z,2.03
2023-01-10T15:20:48.879Z,2.22
2023-01-10T15:23:53.495Z,1.98
2023-01-10T15:27:00.292Z,2.03
2023-01-10T15:30:09.633Z,2.55
2023-01-10T15:33:17.313Z,1.52
2023-01-10T15:36:27.039Z,1.63
2023-01-10T15:39:35.950Z,2.08
2023-01-10T15:42:40.473Z,1.92
2023-01-10T15:45:46.348Z,2.55
2023-01-10T15:49:21.746Z,1.85
2023-01-10T15:52:26.222Z,2.80
2023-01-10T15:55:45.931Z,2.15
2023-01-10T15:58:50.616Z,2.13
2023-01-10T16:02:00.812Z,2.00
2023-01-10T16:05:15.521Z,2.45
2023-01-10T16:08:25.988Z,2.58
2023-01-10T16:11:55.154Z,2.20
2023-01-10T16:14:59.682Z,2.78
2023-01-10T16:18:04.701Z,2.30
2023-01-10T16:21:11.485Z,2.00
2023-01-10T16:24:24.137Z,3.00
2023-01-10T16:27:29.498Z,2.63
2023-01-10T16:30:35.061Z,1.90
2023-01-10T16:33:40.981Z,2.47
2023-01-10T16:36:45.805Z,1.92
2023-01-10T16:39:50.300Z,2.55
2023-01-10T16:43:14.454Z,2.40
2023-01-10T16:46:19.008Z,2.03
2023-01-10T16:49:23.926Z,2.05
2023-01-10T16:52:28.386Z,2.80
2023-01-10T16:55:43.722Z,2.92
2023-01-10T16:58:49.470Z,2.60
2023-01-10T17:01:55.107Z,2.42
2023-01-10T17:04:59.745Z,2.30
2023-01-10T17:08:05.467Z,2.67
2023-01-10T17:11:32.775Z,2.30
2023-01-10T17:14:38.723Z,2.42
2023-01-10T17:17:44.895Z,2.97
2023-01-10T17:20:49.600Z,2.70
2023-01-10T17:23:54.228Z,2.28
2023-01-10T17:27:00.026Z,3.25
2023-01-10T17:30:04.920Z,2.70
2023-01-10T17:33:13.093Z,2.38
2023-01-10T17:36:19.496Z,3.08
2023-01-10T17:39:24.366Z,2.55
2023-01-10T17:42:28.997Z,1.92
2023-01-10T17:45:33.873Z,2.20
2023-01-10T17:48:38.400Z,2.10
2023-01-10T17:51:44.079Z,2.10
2023-01-10T17:54:48.621Z,2.75
2023-01-10T17:57:53.141Z,3.60
2023-01-10T18:00:57.873Z,2.88
2023-01-10T18:04:02.431Z,2.63
2023-01-10T18:07:07.090Z,2.38
2023-01-10T18:10:11.604Z,2.65
2023-01-10T18:13:17.957Z,2.65
2023-01-10T18:16:22.603Z,2.22
2023-01-10T18:19:27.364Z,2.10
2023-01-10T18:22:50.671Z,2.10
2023-01-10T18:25:59.860Z,2.83
2023-01-10T18:29:04.334Z,2.85
2023-01-10T18:32:08.871Z,1.98
2023-01-10T18:35:13.375Z,2.63
2023-01-10T18:38:17.976Z,2.05
2023-01-10T18:41:22.553Z,2.17
2023-01-10T18:44:28.498Z,2.53
2023-01-10T18:47:33.116Z,2.45
2023-01-10T18:50:37.931Z,2.60
2023-01-10T18:53:42.805Z,2.22
2023-01-10T18:56:47.472Z,2.33
2023-01-10T18:59:51.942Z,2.88
2023-01-10T19:02:58.108Z,2.97
2023-01-10T19:06:04.099Z,2.00
2023-01-10T19:09:08.605Z,1.50
2023-01-10T19:12:13.188Z,3.33
2023-01-10T19:15:17.734Z,2.10
2023-01-10T19:18:22.246Z,3.80
2023-01-10T19:21:30.077Z,3.08
2023-01-10T19:24:37.626Z,2.10
2023-01-10T19:27:42.230Z,2.70
2023-01-10T19:31:03.741Z,2.20
2023-01-10T19:34:10.495Z,2.42
2023-01-10T19:37:15.023Z,2.83
2023-01-10T19:40:21.242Z,3.03
2023-01-10T19:43:25.986Z,1.80
2023-01-10T19:46:36.719Z,2.53
2023-01-10T19:49:41.596Z,2.67
2023-01-10T19:52:46.435Z,2.65
2023-01-10T19:55:52.005Z,2.50
2023-01-10T19:58:56.752Z,1.95
2023-01-10T20:02:01.671Z,1.80
2023-01-10T20:05:06.390Z,2.40
2023-01-10T20:08:10.911Z,2.13
2023-01-10T20:11:16.855Z,2.42
2023-01-10T20:14:22.025Z,1.77
2023-01-10T20:17:29.890Z,2.17
2023-01-10T20:20:35.429Z,2.15
2023-01-10T20:23:41.496Z,2.10
2023-01-10T20:26:47.544Z,1.90
2023-01-10T20:29:52.089Z,1.83
2023-01-10T20:32:56.662Z,2.50
2023-01-10T20:36:04.044Z,2.72
2023-01-10T20:39:08.607Z,2.55
2023-01-10T20:42:13.212Z,2.60
2023-01-10T20:45:17.769Z,2.58
2023-01-10T20:48:22.895Z,2.75
2023-01-10T20:51:30.153Z,3.35
2023-01-10T20:54:38.145Z,2.67
2023-01-10T20:57:42.722Z,2.30
2023-01-10T21:00:47.351Z,2.95
2023-01-10T21:03:53.078Z,3.03
2023-01-10T21:06:57.749Z,2.80
2023-01-10T21:10:02.453Z,3.55
2023-01-10T21:13:07.041Z,2.92
2023-01-10T21:16:14.481Z,3.25
2023-01-10T21:19:21.393Z,2.92
2023-01-10T21:22:27.980Z,2.80
2023-01-10T21:25:34.017Z,2.58
2023-01-10T21:28:42.281Z,2.38
2023-01-10T21:31:46.885Z,2.50
2023-01-10T21:34:51.576Z,2.60
2023-01-10T21:37:57.513Z,2.08
2023-01-10T21:41:39.167Z,2.85
2023-01-10T21:44:43.715Z,2.45
2023-01-10T21:47:48.854Z,3.28
2023-01-10T21:50:53.365Z,3.20
2023-01-10T21:53:57.933Z,3.10
2023-01-10T21:57:03.725Z,2.58
2023-01-10T22:00:09.177Z,3.00
2023-01-10T22:03:16.513Z,2.95
2023-01-10T22:06:21.181Z,3.38
2023-01-10T22:09:26.198Z,3.17
2023-01-10T22:12:30.736Z,2.75
2023-01-10T22:15:35.333Z,4.60
2023-01-10T22:18:39.889Z,4.63
2023-01-10T22:21:46.016Z,2.83
2023-01-10T22:24:50.675Z,3.80
2023-01-10T22:27:55.162Z,3.38
2023-01-10T22:31:00.059Z,2.92
2023-01-10T22:34:04.651Z,3.03
2023-01-10T22:37:09.129Z,2.50
2023-01-10T22:40:13.765Z,2.55
2023-01-10T22:43:21.197Z,2.70
2023-01-10T22:46:26.473Z,3.13
2023-01-10T22:49:31.063Z,2.22
2023-01-10T22:52:37.001Z,2.70
2023-01-10T22:55:41.482Z,2.53
2023-01-10T22:58:49.583Z,3.45
2023-01-10T23:01:54.090Z,2.28
2023-01-10T23:04:58.666Z,2.92
2023-01-10T23:08:03.272Z,2.13
2023-01-10T23:11:09.063Z,2.25
2023-01-10T23:14:14.580Z,2.47
2023-01-10T23:17:19.129Z,2.03
2023-01-10T23:20:23.653Z,2.58
2023-01-10T23:23:28.624Z,2.67
2023-01-10T23:26:33.272Z,2.70
2023-01-10T23:29:37.729Z,2.33
2023-01-10T23:32:42.312Z,2.30
2023-01-10T23:35:47.085Z,2.75
2023-01-10T23:38:51.630Z,2.80
2023-01-10T23:41:56.224Z,2.75
2023-01-10T23:45:00.760Z,3.10
2023-01-10T23:48:06.011Z,2.17
2023-01-10T23:51:11.434Z,2.47
2023-01-10T23:54:17.260Z,3.33
2023-01-10T23:57:21.727Z,3.08
